Etusivu
METAR-TAF:

METAR-TAF

Lentoasemat :

Riian kansainvälinen lentoasema

Riika, Latvia

Leveyspiiri: 56-55N, Pituuspiiri: 023-58E, korkeus merenpinnasta: 10 m

Tämänhetkinen sää

Tämä raportti tehtiin 8 minuuttia sitten, kello 20.20 UTC
Tuuli 5 kn idästä/kaakosta, vaihdellen idän ja kaakon välillä
Lämpötila 16°C
Kosteus 27%
Ilmanpaine 1022 hPa
Näkyvyys 10 km tai enemmän
ei pilviä alle 1500 m:ssä eikä cumulonimbus-pilviä

METAR: EVRA 242020Z 11005KT 080V140 CAVOK 16/M03 Q1022 NOSIG

Aika: 23:28 (20:28 UTC)

Sääennuste

Tämä raportti tehtiin 3 tuntia ja 28 minuuttia sitten, kello 17.00 UTC
Ennuste voimassa 24. päivästä klo 18 UTC - 25. päivään klo 18 UTC
Tuuli 5 kn kaakosta
Näkyvyys 10 km tai enemmän
ei pilviä alle 1500 m:ssä eikä cumulonimbus-pilviä
Ajoittain
25. päivästä klo 09 UTC - 25. päivään klo 15 UTC
Tuuli 15 kn kaakosta puuskistuen 28 kn:hen

TAF: EVRA 241700Z 2418/2518 14005KT CAVOK TEMPO 2509/2515 14015G28KT

Säähavainnot ja -ennusteet yli 4000 lentoasemalta (METAR- ja TAF-raportit).

Käytössä olevat sääasemat on merkitty karttaan keltaisilla ja punaisilla pisteillä.

Aseta hiiri pisteen päälle nähdäksesi sääaseman nimen.

Klikkaa sitten nähdäksesi säähavainnot ja -ennusteet.

Kartan vaihtaminen: klikkaa mustalla rastilla varustettuja vihreitä pisteitä, niin voit zoomata sisään; viivalla varustettua vihreää pistettä, niin voit zoomata ulos tai vihreitä nuolia, niin pääset viereisille kartoille.


METAR-TAF: